Weather reports worldwide

Advertisment
S. Valentino Alla Muta, Italy (16008): temperature & dewpoint: 26.10.2020 02:00:00 - 01.11.2020 02:00:00 (CET)S. Valentino Alla Muta, Italy (16008): wind speed: 26.10.2020 02:00:00 - 01.11.2020 02:00:00 (CET)S. Valentino Alla Muta, Italy (16008): wind direction: 26.10.2020 02:00:00 - 01.11.2020 02:00:00 (CET)S. Valentino Alla Muta, Italy (16008): visibility: 26.10.2020 02:00:00 - 01.11.2020 02:00:00 (CET)
Date & Time tt [°C] td [°C] ff [km/h] ff [kn] dd vv [km]
01.11.2020 02:00:00 - - - - - -
01.11.2020 01:00:00 5,4 0,2 9 5 NNE 30
01.11.2020 00:00:00 6,0 1,0 8 4 NNE 30
31.10.2020 23:00:00 6,2 0,5 9 5 NNE 30
31.10.2020 22:00:00 6,2 0,3 8 4 NNE 30
31.10.2020 21:00:00 6,6 0,5 9 5 NNE 30
31.10.2020 20:00:00 7,2 0,0 5 3 NNE 30
31.10.2020 19:00:00 8,0 -0,5 8 4 NNE 30
31.10.2020 18:00:00 9,4 -0,5 11 6 NNE 30
31.10.2020 17:00:00 10,4 -1,3 9 5 NNE 30
31.10.2020 16:00:00 12,4 -1,9 8 4 NNE 30
31.10.2020 15:00:00 15,2 0,2 8 4 N 30
31.10.2020 14:00:00 14,8 0,6 11 6 N 30
31.10.2020 13:00:00 14,8 0,6 11 6 N 30
31.10.2020 12:00:00 13,0 1,4 13 7 N 30
31.10.2020 11:00:00 11,4 3,2 13 7 N 30
31.10.2020 10:00:00 7,6 2,5 13 7 NNE 30
31.10.2020 09:00:00 4,0 0,9 11 6 N 10
31.10.2020 08:00:00 3,8 0,7 13 7 N 10
31.10.2020 07:00:00 3,6 0,7 13 7 NNE 10
31.10.2020 06:00:00 - - - - - -
31.10.2020 05:00:00 4,0 0,7 8 4 N 10
31.10.2020 04:00:00 4,0 1,0 8 4 NNE 10
31.10.2020 03:00:00 4,0 1,0 8 4 NNE 10
31.10.2020 02:00:00 - - - - - -
31.10.2020 01:00:00 4,4 1,8 8 4 N 10
31.10.2020 00:00:00 4,8 2,0 5 3 N 10
30.10.2020 23:00:00 5,0 2,5 5 3 NNE 10
30.10.2020 22:00:00 5,2 2,0 5 3 N 10
30.10.2020 21:00:00 - - - - - -
30.10.2020 20:00:00 5,8 0,8 8 4 N 10
30.10.2020 19:00:00 6,4 0,1 5 3 NNE 10
30.10.2020 18:00:00 9,2 0,6 0 0 N 20
30.10.2020 17:00:00 9,8 0,4 5 3 N 20
30.10.2020 16:00:00 11,8 0,9 5 3 NNE 20
30.10.2020 15:00:00 12,8 -1,2 9 5 NNE 10
30.10.2020 14:00:00 15,0 0,8 5 3 N 20
30.10.2020 13:00:00 14,8 0,6 11 6 NNE 10
30.10.2020 12:00:00 12,8 2,4 9 5 N 10
30.10.2020 11:00:00 12,4 2,3 8 4 N 10
30.10.2020 10:00:00 4,2 3,0 9 5 N 10
30.10.2020 09:00:00 4,2 3,0 11 6 N 10
30.10.2020 08:00:00 4,0 2,8 11 6 N 10
30.10.2020 07:00:00 3,8 2,5 9 5 NNE 15
30.10.2020 06:00:00 3,8 2,5 11 6 NNE 10
30.10.2020 05:00:00 4,0 2,5 15 8 N 10
30.10.2020 04:00:00 4,0 2,5 13 7 N 10
30.10.2020 03:00:00 - - - - - -
30.10.2020 02:00:00 4,0 3,0 9 5 N 10
30.10.2020 01:00:00 3,8 3,1 9 5 N 10
30.10.2020 00:00:00 3,8 2,6 8 4 NNE 10
29.10.2020 23:00:00 4,0 2,4 8 4 NNE 10
29.10.2020 22:00:00 3,6 2,3 8 4 NNE 10
29.10.2020 21:00:00 3,8 2,5 9 5 N 10
29.10.2020 20:00:00 4,0 1,7 8 4 NNE 10
29.10.2020 19:00:00 4,8 2,5 9 5 N 10
29.10.2020 18:00:00 5,2 2,6 5 3 NNE 10
29.10.2020 17:00:00 5,8 2,3 11 6 NE 10
29.10.2020 16:00:00 6,2 2,1 13 7 NNE 10
29.10.2020 15:00:00 - - - - - -
29.10.2020 14:00:00 5,6 2,8 5 3 NNE 10
29.10.2020 13:00:00 5,2 2,9 9 5 NNE 10
29.10.2020 12:00:00 5,4 2,4 13 7 NNE 15
29.10.2020 11:00:00 5,4 1,9 9 5 NNE 15
29.10.2020 10:00:00 3,4 1,4 9 5 N 15
29.10.2020 09:00:00 3,0 1,4 8 4 N 10
29.10.2020 08:00:00 3,0 1,4 8 4 N 10
29.10.2020 07:00:00 3,0 0,9 5 3 N 10
29.10.2020 06:00:00 3,0 0,9 5 3 N 10
29.10.2020 05:00:00 3,0 1,0 11 6 NNE 10
29.10.2020 04:00:00 3,0 -7,8 9 5 NNE 10
29.10.2020 03:00:00 2,2 1,0 9 5 NNW 10
29.10.2020 02:00:00 2,2 0,9 8 4 NNE 10
29.10.2020 01:00:00 2,2 1,0 9 5 NNE 10
29.10.2020 00:00:00 2,2 0,9 5 3 N 10
28.10.2020 23:00:00 2,0 0,7 5 3 NNE 12
28.10.2020 22:00:00 2,0 0,5 5 3 N 10
28.10.2020 21:00:00 2,0 0,5 5 3 N 10
28.10.2020 20:00:00 2,0 0,4 9 5 NNE 10
28.10.2020 19:00:00 2,2 0,6 5 3 NNE 10
28.10.2020 18:00:00 4,6 0,7 5 3 NNE 20
28.10.2020 17:00:00 5,2 1,3 5 3 SW 15
28.10.2020 16:00:00 6,2 0,9 0 0 N 20
28.10.2020 15:00:00 8,4 1,6 5 3 W 20
28.10.2020 14:00:00 8,2 0,4 8 4 WNW 20
28.10.2020 13:00:00 8,2 0,0 5 3 N 10
28.10.2020 12:00:00 6,4 -0,1 8 4 N 10
28.10.2020 11:00:00 2,6 0,0 8 4 N 10
28.10.2020 10:00:00 1,8 -0,4 8 4 N 10
28.10.2020 09:00:00 -0,4 -2,0 5 3 NNE 12
28.10.2020 08:00:00 -1,0 -2,4 5 3 NNE 10
28.10.2020 07:00:00 -1,0 -2,6 5 3 NNE 10
28.10.2020 06:00:00 -1,6 -4,1 5 3 NNE 10
28.10.2020 05:00:00 1,6 0,0 5 3 NNE 10
28.10.2020 04:00:00 -1,2 -2,9 5 3 NNE 10
28.10.2020 03:00:00 -1,2 -2,9 0 0 N 12
28.10.2020 02:00:00 -1,2 -2,8 5 3 NNE 15
28.10.2020 01:00:00 -1,2 -2,8 5 3 NNE 15
28.10.2020 00:00:00 -1,2 -2,5 5 3 NNE 15
27.10.2020 23:00:00 -1,0 -2,3 5 3 NNE 15
27.10.2020 22:00:00 -1,2 -2,5 5 3 NNE 15
27.10.2020 21:00:00 -0,6 -1,9 0 0 N 15
27.10.2020 20:00:00 -0,2 -1,5 5 3 NE 10
27.10.2020 19:00:00 0,6 -1,6 5 3 NE 15
27.10.2020 18:00:00 1,4 -1,5 5 3 ENE 15
27.10.2020 17:00:00 2,8 -1,9 5 3 NNE 20
27.10.2020 16:00:00 2,8 -2,3 8 4 NNE 20
27.10.2020 15:00:00 4,0 -1,4 9 5 NE 20
27.10.2020 14:00:00 3,2 -2,5 8 4 NNE 10
27.10.2020 13:00:00 4,8 -0,6 9 5 NNE 20
27.10.2020 12:00:00 3,0 -0,6 9 5 NE 15
27.10.2020 11:00:00 2,2 -0,9 9 5 NE 15
27.10.2020 10:00:00 2,2 -0,4 13 7 NE 15
27.10.2020 09:00:00 0,8 -1,1 11 6 NE 15
27.10.2020 08:00:00 0,2 -2,0 9 5 ENE 10
27.10.2020 07:00:00 0,2 -2,0 13 7 NNE 10
27.10.2020 06:00:00 1,0 -1,5 13 7 NE 8
27.10.2020 05:00:00 1,0 -1,5 13 7 NNE 8
27.10.2020 04:00:00 1,0 -1,5 11 6 NNE 8
27.10.2020 03:00:00 1,0 -1,1 16 9 NNE 8
27.10.2020 02:00:00 1,0 -0,5 13 7 NNE 5
27.10.2020 01:00:00 1,0 0,7 11 6 NE 3,0
27.10.2020 00:00:00 1,0 0,3 9 5 NE 3,0
26.10.2020 23:00:00 0,8 0,2 9 5 E 2,0
26.10.2020 22:00:00 1,2 0,6 9 5 NNE 2,0
26.10.2020 21:00:00 1,2 0,0 9 5 NE 2,0
26.10.2020 20:00:00 1,6 0,1 9 5 NE 2,0
26.10.2020 19:00:00 2,2 1,9 13 7 NNE 1,5
26.10.2020 18:00:00 4,2 3,8 8 4 ESE 1,0
26.10.2020 17:00:00 4,2 4,1 13 7 SSE 0,8
26.10.2020 16:00:00 4,8 4,7 15 8 S 0,8
26.10.2020 15:00:00 5,0 4,9 15 8 S 0,8
26.10.2020 14:00:00 5,0 4,9 15 8 S 0,8
26.10.2020 13:00:00 5,4 5,2 24 13 S 0,6
26.10.2020 12:00:00 5,6 5,5 16 9 S 0,6
26.10.2020 11:00:00 5,0 4,9 22 12 S 0,9
26.10.2020 10:00:00 5,0 4,9 15 8 S 0,8
26.10.2020 09:00:00 4,8 4,8 13 7 S 0,1
26.10.2020 08:00:00 4,8 4,7 21 11 S 0,1
26.10.2020 07:00:00 4,8 4,7 21 11 S 1,5
26.10.2020 06:00:00 4,8 4,7 16 9 S 4,0
26.10.2020 05:00:00 5,0 4,9 15 8 S 5
26.10.2020 04:00:00 5,0 4,9 11 6 SSE 10
26.10.2020 03:00:00 5,6 5,0 11 6 S 10
26.10.2020 02:00:00 5,6 5,3 13 7 SE 10

tt = temperature
td = dewpoint
ff = wind speed
dd = wind direction
vv = visibility

Next stations